Port Lions, AK (99550)

4:45 AM AKDT on August 05, 2015 (GMT -0800)
Port Lions | | Change Station
CLOSE
Current Station
Personal Weather Station
Location: Kodiak, AK
Elevation: 13 ft
Nearby Weather Stations

Elev 13 ft 57.87 °N, 152.88 °W | Updated 10 minutes ago

Light Rain
Light Rain Mist
53.6 °F
Feels Like 53.6 °F
N
10.4
Wind Variable Wind from NE

Today
High -- | Low -- °F
--% Chance of Precip.
Yesterday
High -- | Low -- °F
Precip. -- in
6:14 AM 10:20 PM
Waning Gibbous, 67% visible
Pressure 29.83 in
Visibility 2.5 miles
Clouds Scattered Clouds 400 ft
Mostly Cloudy 1600 ft
Overcast 2100 ft
Dew Point 53 °F
Humidity 97%
Rainfall 0.00 in
Snow Depth Not available.
UV 0 out of 12
Pollen Not available.
Air Quality Not available.
Flu Activity Not available.
SPECI PADQ 051242Z 05006KT 2 1/2SM -RA BR SCT004 BKN016 OVC021 13/12 A2983 RMK AO2 P0007 T01280117 $

More Conditions Fewer Conditions

Pressure 29.83 in
Visibility 2.5 miles
Clouds Scattered Clouds 400 ft
Mostly Cloudy 1600 ft
Overcast 2100 ft
Dew Point 53 °F
Humidity 97%
Rainfall 0.00 in
Snow Depth Not available.
UV 0 out of 12
Pollen Not available.
Air Quality Not available.
Flu Activity Not available.
SPECI PADQ 051242Z 05006KT 2 1/2SM -RA BR SCT004 BKN016 OVC021 13/12 A2983 RMK AO2 P0007 T01280117 $

More Conditions Fewer Conditions

10-Day Weather Forecast

×

Almanac

Astronomy

Aug. 05, 2015 Rise Set
Actual Time
Civil Twilight
Nautical Twilight
Astronomical Twilight
Moon
Length of Visible Light
Length of Day
Tomorrow will be .
, % of the Moon is Illuminated

Today's Extremes

State Highs State Lows

Community

WunderPhotos

Upload Photos

1,844,175 photos uploaded!

WunderBlogs® & News

Nearby

Air Quality

  Air Quality AQ Index Pollutant
Not available.

Snow Depth

Station Depth Elevation

Earthquake Activity

City Distance Mag. Time & Date
Minimum magnitude displayed is 2.5.

Coastal Water Temperatures

Place Temperature

Stations

Nearby Weather Stations

Station Location Temp. Windchill Dew Point Humidity Wind Precip. Elev Updated Type